Time;durP1;ratioP1;P1;durP2;ratioP2;P2;SDS_P1;SDS_P2;PMS_P1;PMS_P2;Temp;Humidity;BMP_temperature;BMP_pressure;BME280_temperature;BME280_humidity;BME280_pressure;Samples;Min_cycle;Max_cycle;Signal;HPM_P1;HPM_P2
2021/08/22 00:00:49;;;;;;;4.40;3.97;;;24.30;55.80;;;;;;6286620;22;20385;-84
2021/08/22 00:03:15;;;;;;;4.20;3.80;;;24.30;55.80;;;;;;6263015;23;20161;-84
2021/08/22 00:05:43;;;;;;;4.37;3.90;;;24.30;55.80;;;;;;6263524;23;20389;-84
2021/08/22 00:08:11;;;;;;;4.90;4.50;;;24.30;55.80;;;;;;6264790;23;20146;-84
2021/08/22 00:10:37;;;;;;;4.47;3.67;;;24.30;55.80;;;;;;6263678;23;20377;-84
2021/08/22 00:13:03;;;;;;;5.10;4.47;;;24.30;55.90;;;;;;6262771;23;20388;-84
2021/08/22 00:15:28;;;;;;;4.70;4.20;;;24.30;55.80;;;;;;6264047;22;20143;-84
2021/08/22 00:17:54;;;;;;;4.47;4.07;;;24.30;55.80;;;;;;6288122;22;20155;-84
2021/08/22 00:20:21;;;;;;;5.10;4.37;;;24.30;55.80;;;;;;6288262;22;20162;-84
2021/08/22 00:22:48;;;;;;;4.50;4.10;;;24.30;55.80;;;;;;6261772;23;20193;-82
2021/08/22 00:25:14;;;;;;;4.30;3.90;;;24.20;55.80;;;;;;6259701;23;20385;-82
2021/08/22 00:27:40;;;;;;;4.63;4.23;;;24.30;55.80;;;;;;6258950;23;20411;-82
2021/08/22 00:30:06;;;;;;;6.80;5.07;;;24.30;55.80;;;;;;6258426;23;20917;-82
2021/08/22 00:32:32;;;;;;;6.27;4.50;;;24.30;55.90;;;;;;6259241;23;20228;-82
2021/08/22 00:34:58;;;;;;;4.90;4.50;;;24.30;55.90;;;;;;6284904;22;20727;-82
2021/08/22 00:37:28;;;;;;;4.43;4.03;;;24.30;55.90;;;;;;6260930;23;20150;-82
2021/08/22 00:39:54;;;;;;;4.97;4.20;;;24.30;55.90;;;;;;6259995;23;20150;-82
2021/08/22 00:42:21;;;;;;;5.90;4.80;;;24.30;55.90;;;;;;6260490;23;20369;-82
2021/08/22 00:44:47;;;;;;;4.93;4.37;;;24.30;55.90;;;;;;6259210;23;20408;-82
2021/08/22 00:47:13;;;;;;;4.50;4.10;;;24.30;55.90;;;;;;6258553;23;20441;-82
2021/08/22 00:49:38;;;;;;;4.60;4.13;;;24.30;56.00;;;;;;6284965;22;20161;-82
2021/08/22 00:52:05;;;;;;;4.80;4.33;;;24.30;56.00;;;;;;6284027;22;20385;-82
2021/08/22 00:54:36;;;;;;;5.03;4.63;;;24.30;56.00;;;;;;6259498;23;20178;-82
2021/08/22 00:57:02;;;;;;;5.10;4.70;;;24.30;56.00;;;;;;6258995;23;20404;-82
2021/08/22 00:59:28;;;;;;;4.30;4.00;;;24.30;56.00;;;;;;6260452;22;20369;-82
2021/08/22 01:01:57;;;;;;;5.43;4.93;;;24.30;56.10;;;;;;6284568;22;20172;-82
2021/08/22 01:04:30;;;;;;;5.50;5.10;;;24.30;56.10;;;;;;6260763;22;20147;-82
2021/08/22 01:07:07;;;;;;;4.97;4.30;;;24.30;56.10;;;;;;6261104;22;20354;-82
2021/08/22 01:09:37;;;;;;;4.63;4.20;;;24.20;56.00;;;;;;6260360;22;20362;-82
2021/08/22 01:12:13;;;;;;;4.80;4.40;;;24.30;56.10;;;;;;6258775;23;20718;-82
2021/08/22 01:14:45;;;;;;;5.00;4.50;;;24.20;56.00;;;;;;6284749;22;20436;-82
2021/08/22 01:17:12;;;;;;;5.50;4.67;;;24.30;56.10;;;;;;6260398;22;20346;-82
2021/08/22 01:20:05;;;;;;;6.13;4.33;;;24.20;56.00;;;;;;6260178;23;20855;-82
2021/08/22 01:22:33;;;;;;;5.13;4.63;;;24.30;56.10;;;;;;6284252;22;20412;-82
2021/08/22 01:25:01;;;;;;;4.10;3.80;;;24.20;56.00;;;;;;6259027;23;20381;-82
2021/08/22 01:27:29;;;;;;;5.07;4.60;;;24.20;55.90;;;;;;6258398;23;20393;-82
2021/08/22 01:30:01;;;;;;;4.40;4.00;;;24.20;55.90;;;;;;6258686;23;20393;-82
2021/08/22 01:32:39;;;;;;;5.30;4.80;;;24.20;56.10;;;;;;6260482;22;20358;-82
2021/08/22 01:35:08;;;;;;;5.37;4.90;;;24.20;55.90;;;;;;6259745;23;20417;-82
2021/08/22 01:37:35;;;;;;;4.10;3.70;;;24.20;56.50;;;;;;6259511;23;20386;-82
2021/08/22 01:40:02;;;;;;;4.60;4.20;;;24.20;56.00;;;;;;6257563;23;20381;-82
2021/08/22 01:42:30;;;;;;;7.17;5.00;;;24.20;56.00;;;;;;6258955;23;20378;-82
2021/08/22 01:44:57;;;;;;;5.20;4.70;;;24.20;56.10;;;;;;6259831;22;20373;-82
2021/08/22 01:47:23;;;;;;;5.10;4.67;;;24.20;56.10;;;;;;6259145;22;20370;-82
2021/08/22 01:49:49;;;;;;;4.33;3.93;;;24.20;56.10;;;;;;6259758;23;20380;-82
2021/08/22 01:52:16;;;;;;;5.40;4.90;;;24.20;56.20;;;;;;6260238;22;20222;-82
2021/08/22 01:54:44;;;;;;;4.80;4.40;;;24.20;56.20;;;;;;6259640;23;20891;-82
2021/08/22 01:57:10;;;;;;;4.50;4.10;;;24.20;56.20;;;;;;6284175;22;20392;-82
2021/08/22 01:59:38;;;;;;;4.57;4.23;;;24.20;56.10;;;;;;6260537;23;20370;-82
2021/08/22 02:02:05;;;;;;;4.87;4.37;;;24.20;56.20;;;;;;6260879;22;20372;-82
2021/08/22 02:04:46;;;;;;;5.03;4.60;;;24.20;56.20;;;;;;6260444;22;20712;-82
2021/08/22 02:07:15;;;;;;;5.93;5.33;;;24.20;56.10;;;;;;6260506;22;20358;-81
2021/08/22 02:09:48;;;;;;;5.30;4.80;;;24.20;56.20;;;;;;6284640;22;20399;-81
2021/08/22 02:12:19;;;;;;;5.53;4.67;;;24.20;56.10;;;;;;6259537;23;20369;-82
2021/08/22 02:14:51;;;;;;;4.93;4.53;;;24.20;56.10;;;;;;6258740;23;20417;-81
2021/08/22 02:17:19;;;;;;;5.60;5.10;;;24.20;56.20;;;;;;6259933;23;20374;-81
2021/08/22 02:19:45;;;;;;;4.80;4.40;;;24.20;56.20;;;;;;6260352;22;20369;-81
2021/08/22 02:22:11;;;;;;;5.00;4.60;;;24.20;56.20;;;;;;6260628;23;20368;-81
2021/08/22 02:24:36;;;;;;;4.97;4.57;;;24.20;56.20;;;;;;6260985;22;20233;-84
2021/08/22 02:27:03;;;;;;;5.40;4.90;;;24.20;56.20;;;;;;6251292;23;20198;-83
2021/08/22 02:29:28;;;;;;;5.27;4.87;;;24.20;56.20;;;;;;6232939;23;20226;-83
2021/08/22 02:31:54;;;;;;;5.07;4.57;;;24.20;56.20;;;;;;6233922;23;20366;-83
2021/08/22 02:34:20;;;;;;;5.30;4.77;;;24.20;56.20;;;;;;6234135;23;20174;-83
2021/08/22 02:36:45;;;;;;;5.63;4.93;;;24.20;56.20;;;;;;6233271;23;20139;-83
2021/08/22 02:39:11;;;;;;;5.40;4.90;;;24.20;56.20;;;;;;6233877;23;20149;-83
2021/08/22 02:41:36;;;;;;;4.83;4.43;;;24.20;56.20;;;;;;6233285;23;20475;-83
2021/08/22 02:44:02;;;;;;;4.87;4.47;;;24.20;56.20;;;;;;6232718;23;20147;-83
2021/08/22 02:46:28;;;;;;;5.40;4.90;;;24.20;56.20;;;;;;6233089;23;20484;-83
2021/08/22 02:48:54;;;;;;;4.93;4.43;;;24.20;56.20;;;;;;6207006;23;20234;-84
2021/08/22 02:51:19;;;;;;;5.13;4.63;;;24.20;56.20;;;;;;6232447;23;20158;-84
2021/08/22 02:54:13;;;;;;;5.87;5.30;;;24.20;56.20;;;;;;6206313;23;20181;-84
2021/08/22 02:56:39;;;;;;;5.20;4.70;;;24.20;56.20;;;;;;6232586;23;20136;-84
2021/08/22 02:59:04;;;;;;;5.10;4.70;;;24.20;56.20;;;;;;6233064;23;20393;-84
2021/08/22 03:01:31;;;;;;;5.70;5.20;;;24.20;56.30;;;;;;6232198;23;20151;-84
2021/08/22 03:03:56;;;;;;;4.83;4.43;;;24.20;56.30;;;;;;6206330;23;20285;-85
2021/08/22 03:06:22;;;;;;;5.77;5.27;;;24.20;56.30;;;;;;6207011;23;20382;-84
2021/08/22 03:08:48;;;;;;;5.73;5.23;;;24.20;56.30;;;;;;6206234;23;20180;-84
2021/08/22 03:11:17;;;;;;;6.17;5.57;;;24.20;56.40;;;;;;6206763;23;20154;-85
2021/08/22 03:13:44;;;;;;;5.90;5.40;;;24.20;56.60;;;;;;6232754;23;20222;-84
2021/08/22 03:16:10;;;;;;;6.10;5.50;;;24.20;56.60;;;;;;6233133;23;20743;-84
2021/08/22 03:18:35;;;;;;;6.03;5.53;;;24.20;56.70;;;;;;6232963;23;20376;-84
2021/08/22 03:21:01;;;;;;;7.00;5.60;;;24.20;56.80;;;;;;6233256;23;20191;-84
2021/08/22 03:23:26;;;;;;;6.23;5.63;;;24.20;56.90;;;;;;6232988;23;20155;-84
2021/08/22 03:25:52;;;;;;;6.17;5.63;;;24.20;57.00;;;;;;6232473;23;20174;-84
2021/08/22 03:28:20;;;;;;;5.90;5.40;;;24.20;57.00;;;;;;6231993;23;20270;-84
2021/08/22 03:30:45;;;;;;;6.07;5.50;;;24.20;57.00;;;;;;6233095;23;20844;-84
2021/08/22 03:33:11;;;;;;;6.90;6.20;;;24.20;57.10;;;;;;6232813;23;20424;-84
2021/08/22 03:35:37;;;;;;;6.67;6.17;;;24.20;57.10;;;;;;6232238;23;20166;-84
2021/08/22 03:38:03;;;;;;;6.93;6.00;;;24.20;57.20;;;;;;6234553;23;20367;-84
2021/08/22 03:40:28;;;;;;;6.37;5.63;;;24.20;57.20;;;;;;6207728;23;20185;-84
2021/08/22 03:42:54;;;;;;;5.50;5.00;;;24.20;57.30;;;;;;6234829;23;20187;-84
2021/08/22 03:45:25;;;;;;;6.10;5.50;;;24.20;57.30;;;;;;6233711;23;20154;-84
2021/08/22 03:47:51;;;;;;;6.67;5.90;;;24.20;57.30;;;;;;6207212;23;20150;-84
2021/08/22 03:50:17;;;;;;;6.83;5.33;;;24.20;57.40;;;;;;6207164;23;20394;-84
2021/08/22 03:52:42;;;;;;;5.93;5.43;;;24.20;57.30;;;;;;6206872;23;20151;-84
2021/08/22 03:55:08;;;;;;;5.43;4.93;;;24.20;57.40;;;;;;6234163;23;20262;-84
2021/08/22 03:57:34;;;;;;;6.70;5.20;;;24.20;57.40;;;;;;6206943;23;20229;-84
2021/08/22 03:59:59;;;;;;;5.90;5.30;;;24.20;57.50;;;;;;6206687;23;20378;-84
2021/08/22 04:02:25;;;;;;;5.87;5.30;;;24.20;57.50;;;;;;6208538;23;20166;-84
2021/08/22 04:04:51;;;;;;;5.70;5.10;;;24.20;57.60;;;;;;6234755;23;20167;-84
2021/08/22 04:07:17;;;;;;;5.30;4.80;;;24.20;57.70;;;;;;6233805;23;20151;-84
2021/08/22 04:09:42;;;;;;;5.20;4.70;;;24.20;57.70;;;;;;6235536;23;20147;-84
2021/08/22 04:12:09;;;;;;;6.43;5.87;;;24.20;57.60;;;;;;6234989;23;20512;-84
2021/08/22 04:14:34;;;;;;;5.70;5.20;;;24.20;57.50;;;;;;6207144;23;20185;-84
2021/08/22 04:17:00;;;;;;;5.90;5.27;;;24.20;57.50;;;;;;6209242;23;20382;-84
2021/08/22 04:19:32;;;;;;;5.97;5.47;;;24.20;57.40;;;;;;6234684;23;20155;-84
2021/08/22 04:21:58;;;;;;;5.30;4.90;;;24.20;57.40;;;;;;6233373;23;20132;-84
2021/08/22 04:24:23;;;;;;;5.73;5.23;;;24.20;57.40;;;;;;6234222;23;20381;-84
2021/08/22 04:26:49;;;;;;;5.40;4.90;;;24.20;57.30;;;;;;6244103;22;20412;-84
2021/08/22 04:29:15;;;;;;;5.00;4.60;;;24.20;57.40;;;;;;6288442;22;20158;-84
2021/08/22 04:31:41;;;;;;;5.87;5.30;;;24.20;57.30;;;;;;6263384;23;20154;-84
2021/08/22 04:34:07;;;;;;;5.10;4.53;;;24.20;57.30;;;;;;6264290;22;20200;-85
2021/08/22 04:36:33;;;;;;;5.37;4.83;;;24.20;57.30;;;;;;6288649;22;20468;-84
2021/08/22 04:38:59;;;;;;;4.23;3.93;;;24.20;57.30;;;;;;6261663;22;20151;-84
2021/08/22 04:41:25;;;;;;;5.23;4.73;;;24.20;57.30;;;;;;6264380;23;20370;-84
2021/08/22 04:43:52;;;;;;;5.43;4.93;;;24.20;57.40;;;;;;6264269;23;20380;-85
2021/08/22 04:46:18;;;;;;;4.43;3.90;;;24.20;57.40;;;;;;6288428;22;20227;-84
2021/08/22 04:48:43;;;;;;;5.50;5.00;;;24.20;57.40;;;;;;6262701;23;20408;-84
2021/08/22 04:51:09;;;;;;;5.80;5.20;;;24.20;57.30;;;;;;6264826;23;20397;-84
2021/08/22 04:53:35;;;;;;;5.30;4.80;;;24.20;57.40;;;;;;6265248;23;20169;-84
2021/08/22 04:56:00;;;;;;;5.57;5.07;;;24.20;57.50;;;;;;6264062;23;20147;-84
2021/08/22 04:58:27;;;;;;;5.63;5.17;;;24.20;57.60;;;;;;6263220;23;20143;-84
2021/08/22 05:07:38;;;;;;;5.17;4.30;;;24.20;57.80;;;;;;6143433;23;21071;-83
2021/08/22 05:10:04;;;;;;;5.10;4.60;;;24.10;57.70;;;;;;6142852;23;20388;-83
2021/08/22 05:12:29;;;;;;;4.43;4.03;;;24.20;57.80;;;;;;6118676;23;20161;-83
2021/08/22 05:14:55;;;;;;;4.83;4.33;;;24.10;57.60;;;;;;6142824;23;20456;-83
2021/08/22 05:17:20;;;;;;;6.23;5.33;;;24.10;57.70;;;;;;6142006;23;20636;-83
2021/08/22 05:19:46;;;;;;;5.20;4.67;;;24.20;57.80;;;;;;6142289;23;20142;-83
2021/08/22 05:22:12;;;;;;;4.50;4.10;;;24.20;57.80;;;;;;6141660;23;20153;-83
2021/08/22 05:24:37;;;;;;;4.70;4.30;;;24.20;57.80;;;;;;6141605;23;20236;-83
2021/08/22 05:27:03;;;;;;;5.20;4.70;;;24.20;57.80;;;;;;6141718;23;20189;-84
2021/08/22 05:29:29;;;;;;;5.20;4.70;;;24.20;57.80;;;;;;6141726;23;20153;-84
2021/08/22 05:31:55;;;;;;;5.77;5.00;;;24.20;57.80;;;;;;6141626;23;20385;-84
2021/08/22 05:34:20;;;;;;;7.07;4.50;;;24.20;57.80;;;;;;6116843;23;20188;-84
2021/08/22 05:36:46;;;;;;;5.30;4.60;;;24.20;57.90;;;;;;6141152;23;20192;-84
2021/08/22 05:39:12;;;;;;;4.77;4.33;;;24.20;57.80;;;;;;6141482;23;20152;-84
2021/08/22 05:41:37;;;;;;;5.30;4.80;;;24.20;57.80;;;;;;6249163;23;20147;-84
2021/08/22 05:44:03;;;;;;;5.50;5.00;;;24.20;57.80;;;;;;6263740;23;20151;-84
2021/08/22 05:46:29;;;;;;;6.00;5.23;;;24.20;57.80;;;;;;6261754;22;20161;-84
2021/08/22 05:48:55;;;;;;;4.40;4.00;;;24.20;57.90;;;;;;6262644;22;20146;-84
2021/08/22 05:51:21;;;;;;;4.70;4.30;;;24.20;58.00;;;;;;6262092;23;20154;-84
2021/08/22 05:53:48;;;;;;;5.30;4.67;;;24.20;58.10;;;;;;6263150;22;20417;-84
2021/08/22 05:56:15;;;;;;;4.97;4.40;;;24.20;58.10;;;;;;6262299;23;20433;-84
2021/08/22 05:58:41;;;;;;;5.67;4.57;;;24.20;58.20;;;;;;6262586;23;20381;-84
2021/08/22 06:01:07;;;;;;;4.40;3.87;;;24.20;58.20;;;;;;6260987;23;20455;-84
2021/08/22 06:03:32;;;;;;;4.97;4.47;;;24.20;58.30;;;;;;6262773;23;20381;-84
2021/08/22 06:05:58;;;;;;;5.90;5.30;;;24.20;58.30;;;;;;6288197;22;20237;-83
2021/08/22 06:08:24;;;;;;;4.13;3.73;;;24.20;58.40;;;;;;6263945;22;20147;-84
2021/08/22 06:10:50;;;;;;;6.83;4.87;;;24.20;58.30;;;;;;6265327;22;20369;-84
2021/08/22 06:13:15;;;;;;;4.70;4.20;;;24.20;58.40;;;;;;6262544;23;20388;-84
2021/08/22 06:15:41;;;;;;;6.57;4.73;;;24.20;58.50;;;;;;6262473;23;20177;-84
2021/08/22 06:18:07;;;;;;;5.57;4.23;;;24.20;58.60;;;;;;6263920;22;20181;-84
2021/08/22 06:20:33;;;;;;;5.43;4.97;;;24.20;58.50;;;;;;6263617;23;20143;-83
2021/08/22 06:23:01;;;;;;;5.90;4.10;;;24.20;58.60;;;;;;6263789;22;20143;-83
2021/08/22 06:25:27;;;;;;;4.90;4.50;;;24.20;58.70;;;;;;6263998;22;20153;-84
2021/08/22 06:27:53;;;;;;;4.70;4.30;;;24.20;58.60;;;;;;6286984;22;20402;-84
2021/08/22 06:30:18;;;;;;;5.17;4.73;;;24.20;58.60;;;;;;6261919;23;20159;-84
2021/08/22 06:32:44;;;;;;;4.20;3.80;;;24.20;58.70;;;;;;6262563;23;20476;-84
2021/08/22 06:35:10;;;;;;;5.43;4.90;;;24.20;58.70;;;;;;6287368;22;20184;-84
2021/08/22 06:37:37;;;;;;;5.80;4.13;;;24.20;58.60;;;;;;6263181;22;20148;-83
2021/08/22 06:40:06;;;;;;;4.73;4.30;;;24.20;58.50;;;;;;6262800;22;20142;-83
2021/08/22 06:42:32;;;;;;;5.80;4.90;;;24.20;58.40;;;;;;6262115;22;20377;-83
2021/08/22 06:44:58;;;;;;;4.97;4.10;;;24.20;58.20;;;;;;6287102;22;20381;-83
2021/08/22 06:47:24;;;;;;;4.23;3.83;;;24.20;58.10;;;;;;6262205;23;20381;-83
2021/08/22 06:49:50;;;;;;;4.73;4.23;;;24.20;58.10;;;;;;6263626;22;20151;-84
2021/08/22 06:52:16;;;;;;;3.70;3.40;;;24.20;58.00;;;;;;6287812;22;20449;-83
2021/08/22 06:54:44;;;;;;;3.80;3.27;;;24.30;58.00;;;;;;6261147;23;20431;-83
2021/08/22 06:57:13;;;;;;;5.07;3.90;;;24.30;57.90;;;;;;6263041;23;20149;-83
2021/08/22 06:59:40;;;;;;;4.77;3.63;;;24.30;57.90;;;;;;6263119;23;20372;-83
2021/08/22 07:02:06;;;;;;;4.37;3.63;;;24.30;57.80;;;;;;6262140;23;20388;-83
2021/08/22 07:04:33;;;;;;;4.53;4.13;;;24.30;57.70;;;;;;6262461;23;20374;-83
2021/08/22 07:06:58;;;;;;;6.80;3.67;;;24.30;57.70;;;;;;6288648;22;20389;-82
2021/08/22 07:09:24;;;;;;;4.43;4.03;;;24.30;57.60;;;;;;6263408;23;20387;-83
2021/08/22 07:11:50;;;;;;;6.10;4.13;;;24.30;57.60;;;;;;6286715;22;20157;-83
2021/08/22 07:14:21;;;;;;;5.37;4.10;;;24.30;57.50;;;;;;6287563;22;20174;-83
2021/08/22 07:16:48;;;;;;;3.90;3.50;;;24.30;57.50;;;;;;6262330;23;20135;-84
2021/08/22 07:19:14;;;;;;;4.80;4.37;;;24.30;57.50;;;;;;6262085;23;20365;-83
2021/08/22 07:21:39;;;;;;;4.23;3.93;;;24.30;57.50;;;;;;6285776;22;20400;-84
2021/08/22 07:24:08;;;;;;;5.47;3.70;;;24.30;57.50;;;;;;6262183;22;20158;-83
2021/08/22 07:26:34;;;;;;;3.87;3.57;;;24.30;57.50;;;;;;6260718;23;20408;-84
2021/08/22 07:29:02;;;;;;;4.50;3.73;;;24.30;57.40;;;;;;6232357;22;20389;-84
2021/08/22 07:31:27;;;;;;;3.90;3.60;;;24.30;57.30;;;;;;6204613;23;20162;-84
2021/08/22 07:33:53;;;;;;;3.60;3.20;;;24.40;57.40;;;;;;6230363;23;20454;-84
2021/08/22 07:36:19;;;;;;;4.50;3.90;;;24.40;57.40;;;;;;6230350;23;20154;-84
2021/08/22 07:38:45;;;;;;;3.90;3.60;;;24.40;57.50;;;;;;6204220;23;20155;-83
2021/08/22 07:41:10;;;;;;;6.20;4.00;;;24.40;57.40;;;;;;6230598;23;20370;-84
2021/08/22 07:43:41;;;;;;;4.40;4.10;;;24.40;57.40;;;;;;6230164;23;20162;-84
2021/08/22 07:46:07;;;;;;;5.17;3.60;;;24.40;57.30;;;;;;6204704;23;20162;-84
2021/08/22 07:48:33;;;;;;;3.83;3.53;;;24.40;57.30;;;;;;6231406;23;20374;-84
2021/08/22 07:51:04;;;;;;;3.80;3.40;;;24.40;57.30;;;;;;6232318;23;20147;-83
2021/08/22 07:53:30;;;;;;;4.23;3.83;;;24.40;57.30;;;;;;6232659;23;20613;-84
2021/08/22 07:55:56;;;;;;;4.30;3.90;;;24.40;57.20;;;;;;6205673;23;20382;-84
2021/08/22 07:58:25;;;;;;;3.80;3.50;;;24.40;57.20;;;;;;6232797;23;20150;-84
2021/08/22 08:00:55;;;;;;;3.97;3.57;;;24.40;57.20;;;;;;6205159;23;20151;-84
2021/08/22 08:03:21;;;;;;;3.70;3.30;;;24.40;57.20;;;;;;6205096;23;20367;-84
2021/08/22 08:05:47;;;;;;;4.00;3.60;;;24.40;57.20;;;;;;6206762;23;20444;-84
2021/08/22 08:08:13;;;;;;;4.60;3.50;;;24.40;57.10;;;;;;6206062;23;20162;-84
2021/08/22 08:10:39;;;;;;;3.60;3.30;;;24.40;57.70;;;;;;6207218;23;20163;-83
2021/08/22 08:13:07;;;;;;;3.83;3.40;;;24.40;57.10;;;;;;6207162;23;20386;-83
2021/08/22 08:15:32;;;;;;;4.63;3.80;;;24.40;57.10;;;;;;6206886;23;20172;-83
2021/08/22 08:18:42;;;;;;;4.03;3.40;;;24.40;57.10;;;;;;6206372;23;20367;-83
2021/08/22 08:21:07;;;;;;;5.70;3.83;;;24.50;57.20;;;;;;6207408;23;20155;-84
2021/08/22 08:23:54;;;;;;;4.03;3.63;;;24.40;57.10;;;;;;6234416;23;20476;-84
2021/08/22 08:26:20;;;;;;;4.07;3.47;;;24.40;57.10;;;;;;6208801;23;20163;-84
2021/08/22 08:29:27;;;;;;;3.87;3.47;;;24.40;57.10;;;;;;6261434;23;20376;-84
2021/08/22 08:31:53;;;;;;;3.90;3.20;;;24.40;57.10;;;;;;6262614;23;20478;-83
2021/08/22 08:34:18;;;;;;;3.63;3.23;;;24.40;57.10;;;;;;6263014;22;20436;-84
2021/08/22 08:36:44;;;;;;;4.77;3.40;;;24.40;57.10;;;;;;6262010;23;20157;-84
2021/08/22 08:39:10;;;;;;;4.20;3.57;;;24.40;57.00;;;;;;6287909;22;20150;-84
2021/08/22 08:41:36;;;;;;;3.77;3.37;;;24.40;57.00;;;;;;6287814;22;20166;-84
2021/08/22 08:44:02;;;;;;;3.30;3.00;;;24.40;57.00;;;;;;6262331;23;20647;-84
2021/08/22 08:46:37;;;;;;;3.13;2.83;;;24.40;57.00;;;;;;6263965;22;20210;-84
2021/08/22 08:49:28;;;;;;;5.27;3.80;;;24.40;57.00;;;;;;6266320;22;20130;-82
2021/08/22 08:52:21;;;;;;;4.23;3.63;;;24.40;57.00;;;;;;6264645;22;20836;-81
2021/08/22 08:54:58;;;;;;;3.50;3.20;;;24.40;57.20;;;;;;6265672;23;20409;-81
2021/08/22 08:57:23;;;;;;;3.73;3.43;;;24.40;57.10;;;;;;6265207;23;20381;-81
2021/08/22 08:59:49;;;;;;;5.93;3.60;;;24.40;57.10;;;;;;6264324;22;20373;-80
2021/08/22 09:02:15;;;;;;;4.30;3.90;;;24.40;57.10;;;;;;6292041;22;20151;-81
2021/08/22 09:05:14;;;;;;;4.83;4.10;;;24.40;57.00;;;;;;6289185;22;20185;-81
2021/08/22 09:08:17;;;;;;;3.90;3.20;;;24.40;57.00;;;;;;6262731;23;20177;-80
2021/08/22 09:11:07;;;;;;;4.00;3.43;;;24.40;57.10;;;;;;6261849;23;20393;-81
2021/08/22 09:14:15;;;;;;;5.37;3.80;;;24.40;57.10;;;;;;6261462;23;20409;-81
2021/08/22 09:17:05;;;;;;;3.70;3.17;;;24.40;57.10;;;;;;6191979;23;20381;-84
2021/08/22 09:19:56;;;;;;;3.43;3.13;;;24.40;57.20;;;;;;6264514;22;20836;-83
2021/08/22 09:23:02;;;;;;;4.83;3.47;;;24.40;57.20;;;;;;6261800;23;20380;-84
2021/08/22 09:26:05;;;;;;;4.13;3.30;;;24.40;57.30;;;;;;6261519;23;20405;-84
2021/08/22 09:29:02;;;;;;;4.90;3.10;;;24.40;57.20;;;;;;6262624;23;20381;-84
2021/08/22 09:31:56;;;;;;;3.47;3.17;;;24.40;57.20;;;;;;6261541;23;20381;-84
2021/08/22 09:38:22;;;;;;;4.27;3.20;;;24.40;57.30;;;;;;6233606;23;20346;-85
2021/08/22 09:41:32;;;;;;;3.77;3.47;;;24.40;57.40;;;;;;6206615;23;20382;-85
2021/08/22 09:44:38;;;;;;;3.27;2.80;;;24.40;57.60;;;;;;6208164;23;20462;-85
2021/08/22 09:47:13;;;;;;;3.63;3.17;;;24.40;57.60;;;;;;6209528;23;20386;-85
2021/08/22 09:50:07;;;;;;;5.00;3.70;;;24.30;57.50;;;;;;6208775;23;20408;-85
2021/08/22 09:56:32;;;;;;;3.27;2.97;;;24.40;57.70;;;;;;6233491;23;20409;-84
2021/08/22 09:59:29;;;;;;;5.80;4.47;;;24.40;57.50;;;;;;6209053;23;20397;-83
2021/08/22 10:02:13;;;;;;;7.50;5.57;;;24.40;57.50;;;;;;6208921;23;20408;-83
2021/08/22 10:05:20;;;;;;;8.50;5.80;;;24.40;57.50;;;;;;6206464;23;20377;-84
2021/08/22 10:07:49;;;;;;;8.67;5.97;;;24.40;57.40;;;;;;6205543;23;20366;-84
2021/08/22 10:10:25;;;;;;;5.83;5.10;;;24.40;57.40;;;;;;6209242;23;20381;-84
2021/08/22 10:12:51;;;;;;;8.27;5.83;;;24.40;57.30;;;;;;6184222;23;20378;-84
2021/08/22 10:15:21;;;;;;;13.63;7.00;;;24.40;57.30;;;;;;6209134;23;20570;-84
2021/08/22 10:17:50;;;;;;;8.97;6.17;;;24.40;57.30;;;;;;6209861;23;20152;-84
2021/08/22 10:20:42;;;;;;;10.53;6.50;;;24.40;57.40;;;;;;6209614;23;20841;-83
2021/08/22 10:29:57;;;;;;;13.03;6.30;;;24.40;57.50;;;;;;6114992;23;20474;-83
2021/08/22 10:35:48;;;;;;;9.40;5.70;;;24.40;57.60;;;;;;6115136;23;20402;-83
2021/08/22 10:38:25;;;;;;;9.83;6.27;;;24.40;57.60;;;;;;6093026;23;20370;-83
2021/08/22 10:41:00;;;;;;;7.80;5.90;;;24.40;57.50;;;;;;6117021;23;20401;-84
2021/08/22 10:43:36;;;;;;;10.23;6.30;;;24.50;57.50;;;;;;6092903;23;20912;-84
2021/08/22 10:46:26;;;;;;;;;;;;;;;;;;;;;
2021/08/22 10:48:59;;;;;;;8.07;5.77;;;24.50;57.30;;;;;;6021849;23;20370;-83
2021/08/22 10:51:25;;;;;;;8.40;5.63;;;24.50;57.20;;;;;;6116409;23;20358;-84
2021/08/22 10:54:17;;;;;;;8.67;6.20;;;24.50;57.20;;;;;;6117642;23;20533;-84
2021/08/22 10:56:43;;;;;;;8.33;5.73;;;24.50;57.10;;;;;;6114995;23;20629;-83
2021/08/22 10:59:09;;;;;;;9.07;5.50;;;24.50;57.20;;;;;;6114815;23;20397;-84
2021/08/22 11:01:40;;;;;;;9.90;5.87;;;24.50;57.20;;;;;;6114815;23;20150;-83
2021/08/22 11:04:22;;;;;;;9.03;5.90;;;24.50;57.20;;;;;;6230953;23;20602;-83
2021/08/22 11:07:06;;;;;;;7.13;5.40;;;24.60;57.20;;;;;;6235682;23;20365;-84
2021/08/22 11:09:43;;;;;;;9.53;6.00;;;24.60;57.20;;;;;;6209625;23;20370;-84
2021/08/22 11:12:27;;;;;;;7.83;6.43;;;24.50;57.00;;;;;;6236243;23;20365;-84
2021/08/22 11:14:55;;;;;;;8.00;5.80;;;24.60;57.10;;;;;;6208897;23;20414;-84
2021/08/22 11:17:22;;;;;;;9.20;5.67;;;24.50;57.10;;;;;;6235611;23;20366;-84
2021/08/22 11:20:24;;;;;;;6.70;5.73;;;24.50;57.00;;;;;;6209946;23;20370;-83
2021/08/22 11:24:01;;;;;;;6.63;5.53;;;24.60;57.00;;;;;;6233721;23;20381;-84
2021/08/22 11:27:02;;;;;;;8.83;5.33;;;24.50;56.90;;;;;;6143198;23;20412;-82
2021/08/22 11:29:28;;;;;;;9.10;5.20;;;24.50;57.10;;;;;;6145495;23;20369;-82
2021/08/22 11:32:30;;;;;;;7.30;5.80;;;24.50;57.20;;;;;;6119934;23;20548;-82
2021/08/22 11:35:10;;;;;;;8.90;5.80;;;24.50;57.20;;;;;;6121939;23;20176;-85
2021/08/22 11:37:35;;;;;;;10.10;6.17;;;24.50;57.20;;;;;;6119482;23;20444;-85
2021/08/22 11:40:06;;;;;;;9.03;6.13;;;24.50;57.30;;;;;;6117567;23;20381;-86
2021/08/22 11:42:32;;;;;;;9.00;6.10;;;24.50;57.20;;;;;;6120863;23;20161;-86
2021/08/22 11:45:13;;;;;;;8.00;5.30;;;24.50;57.30;;;;;;6144344;23;20377;-85
2021/08/22 11:47:43;;;;;;;9.10;5.67;;;24.60;57.30;;;;;;6118510;23;20385;-85
2021/08/22 11:50:13;;;;;;;10.60;6.10;;;24.50;57.30;;;;;;6143925;23;20373;-85
2021/08/22 11:52:47;;;;;;;7.40;5.23;;;24.60;57.40;;;;;;6141590;23;20401;-85
2021/08/22 11:55:14;;;;;;;7.70;5.83;;;24.60;57.30;;;;;;6117242;23;20435;-86
2021/08/22 11:57:43;;;;;;;7.13;6.23;;;24.60;57.80;;;;;;6141206;23;20428;-86
2021/08/22 12:00:17;;;;;;;7.73;5.50;;;24.60;57.30;;;;;;6119951;23;20381;-85
2021/08/22 12:03:14;;;;;;;7.90;5.63;;;24.60;57.20;;;;;;6122152;23;20377;-85
2021/08/22 12:05:59;;;;;;;10.90;5.93;;;24.60;57.20;;;;;;6211555;23;20373;-86
2021/08/22 12:08:29;;;;;;;6.77;5.77;;;24.60;57.20;;;;;;6213984;23;20434;-85
2021/08/22 12:11:10;;;;;;;9.70;6.30;;;24.60;57.20;;;;;;6213136;23;20382;-85
2021/08/22 12:13:40;;;;;;;6.43;4.73;;;24.60;57.20;;;;;;6212649;23;20429;-84
2021/08/22 12:19:32;;;;;;;7.20;5.10;;;24.60;57.20;;;;;;6177651;23;20371;-86
2021/08/22 12:22:09;;;;;;;6.27;4.97;;;24.60;57.30;;;;;;6174093;23;20376;-86
2021/08/22 12:24:38;;;;;;;7.87;5.33;;;24.60;57.20;;;;;;6176735;23;20372;-84
2021/08/22 12:27:07;;;;;;;5.93;5.03;;;24.60;57.20;;;;;;6128432;23;20383;-83
2021/08/22 12:29:42;;;;;;;6.27;4.60;;;24.60;57.20;;;;;;6175599;23;20467;-84
2021/08/22 12:32:15;;;;;;;6.83;4.90;;;24.70;57.30;;;;;;6152662;23;20391;-84
2021/08/22 12:35:09;;;;;;;6.50;5.90;;;24.60;57.20;;;;;;6177785;23;20426;-84
2021/08/22 12:37:38;;;;;;;4.70;4.13;;;24.60;57.10;;;;;;6179819;23;20443;-84
2021/08/22 12:40:05;;;;;;;5.40;4.43;;;24.60;57.10;;;;;;6152188;23;20380;-84
2021/08/22 12:42:31;;;;;;;7.77;4.80;;;24.60;57.10;;;;;;6174972;23;20495;-84
2021/08/22 12:44:57;;;;;;;7.73;5.00;;;24.60;57.10;;;;;;6176625;23;20387;-84
2021/08/22 12:47:26;;;;;;;5.87;4.80;;;24.60;57.10;;;;;;6176301;23;20387;-84
2021/08/22 12:49:55;;;;;;;6.30;4.77;;;24.60;57.10;;;;;;6174756;23;20467;-84
2021/08/22 12:52:26;;;;;;;7.70;5.20;;;24.60;57.00;;;;;;6175751;23;20388;-84
2021/08/22 12:54:54;;;;;;;5.30;4.47;;;24.60;57.00;;;;;;6151419;23;20423;-83
2021/08/22 12:57:20;;;;;;;6.60;4.10;;;24.60;57.00;;;;;;6202379;23;20904;-84
2021/08/22 12:59:46;;;;;;;6.30;4.37;;;24.60;57.00;;;;;;6236614;23;20366;-84
2021/08/22 13:02:12;;;;;;;9.80;4.77;;;24.60;57.60;;;;;;6237317;23;20215;-84
2021/08/22 13:04:38;;;;;;;5.00;4.47;;;24.60;57.00;;;;;;6210877;23;20155;-83
2021/08/22 13:07:03;;;;;;;5.10;4.30;;;24.60;57.00;;;;;;6236999;23;20203;-83
2021/08/22 13:09:29;;;;;;;5.20;4.20;;;24.60;57.00;;;;;;6236411;23;20155;-84
2021/08/22 13:11:56;;;;;;;4.67;3.93;;;24.60;57.00;;;;;;6211622;23;20162;-84
2021/08/22 13:14:22;;;;;;;5.50;4.17;;;24.60;57.00;;;;;;6209986;23;20211;-84
2021/08/22 13:16:50;;;;;;;7.30;4.13;;;24.60;57.00;;;;;;6237831;23;20378;-84
2021/08/22 13:19:21;;;;;;;5.93;4.20;;;24.60;57.00;;;;;;6211206;23;20390;-86
2021/08/22 13:21:54;;;;;;;5.20;4.10;;;24.60;57.00;;;;;;6210454;23;20375;-85
2021/08/22 13:27:42;;;;;;;4.93;3.83;;;24.60;57.00;;;;;;6236413;23;20369;-84
2021/08/22 13:30:08;;;;;;;5.10;4.07;;;24.60;57.10;;;;;;6237716;23;20381;-84
2021/08/22 13:32:34;;;;;;;5.20;3.90;;;24.60;57.10;;;;;;6228190;22;20171;-85
2021/08/22 13:35:00;;;;;;;4.33;3.93;;;24.60;57.10;;;;;;6272879;22;20473;-85
2021/08/22 13:37:26;;;;;;;13.20;4.00;;;24.60;57.10;;;;;;6247171;22;20380;-86